Time;durP1;ratioP1;P1;durP2;ratioP2;P2;SDS_P1;SDS_P2;PMS_P1;PMS_P2;Temp;Humidity;BMP_temperature;BMP_pressure;BME280_temperature;BME280_humidity;BME280_pressure;Samples;Min_cycle;Max_cycle;Signal;HPM_P1;HPM_P2
2023/01/06 00:02:31;;;;;;;;;;;;;;;16.32;57.67;101425.85;2245621;78;50794;-76
2023/01/06 00:05:33;;;;;;;;;;;;;;;16.31;57.74;101418.84;2271324;77;51617;-76
2023/01/06 00:08:34;;;;;;;;;;;;;;;16.32;57.83;101419.67;2270708;77;53587;-76
2023/01/06 00:11:36;;;;;;;;;;;;;;;16.32;58.00;101419.67;2263142;77;51549;-76
2023/01/06 00:14:38;;;;;;;;;;;;;;;16.33;58.13;101419.51;2267117;78;51467;-75
2023/01/06 00:17:39;;;;;;;;;;;;;;;16.35;58.15;101418.54;2265828;78;51521;-75
2023/01/06 00:20:41;;;;;;;;;;;;;;;16.33;58.35;101417.34;2266225;78;51732;-76
2023/01/06 00:23:42;;;;;;;;;;;;;;;16.33;58.44;101422.18;2264655;78;51409;-75
2023/01/06 00:26:44;;;;;;;;;;;;;;;16.35;58.54;101417.20;2264918;77;52362;-76
2023/01/06 00:29:48;;;;;;;;;;;;;;;16.35;58.77;101410.52;2307644;77;50417;-76
2023/01/06 00:32:50;;;;;;;;;;;;;;;16.37;58.89;101410.72;2307916;75;22384;-76
2023/01/06 00:35:51;;;;;;;;;;;;;;;16.37;59.03;101409.39;2307711;77;50317;-76
2023/01/06 00:38:53;;;;;;;;;;;;;;;16.38;55.66;101402.20;2283198;77;49600;-76
2023/01/06 00:42:04;;;;;;;;;;;;;;;16.23;53.57;101396.02;2275200;77;50656;-76
2023/01/06 00:45:06;;;;;;;;;;;;;;;16.16;52.19;101398.10;2265447;78;51567;-76
2023/01/06 00:48:07;;;;;;;;;;;;;;;16.08;52.65;101401.05;2266031;78;50636;-75
2023/01/06 00:51:09;;;;;;;;;;;;;;;16.12;54.99;101401.58;2241155;78;52659;-76
2023/01/06 00:54:11;;;;;;;;;;;;;;;16.17;55.69;101393.13;2266436;78;51510;-76
2023/01/06 00:57:12;;;;;;;;;;;;;;;16.17;56.23;101403.30;2264208;78;50835;-75
2023/01/06 01:00:14;;;;;;;;;;;;;;;16.18;56.41;101404.97;2264536;78;51536;-76
2023/01/06 01:03:16;;;;;;;;;;;;;;;16.20;56.36;101408.84;2241226;78;51907;-76
2023/01/06 01:06:17;;;;;;;;;;;;;;;16.22;56.68;101402.87;2266039;78;50644;-75
2023/01/06 01:09:24;;;;;;;;;;;;;;;16.20;56.67;101408.34;2264549;78;51614;-76
2023/01/06 01:12:23;;;;;;;;;;;;;;;16.19;56.75;101403.17;2264574;78;22275;-76
2023/01/06 01:15:25;;;;;;;;;;;;;;;16.22;56.86;101402.87;2245228;78;51877;-76
2023/01/06 01:18:26;;;;;;;;;;;;;;;16.22;57.05;101401.03;2269000;77;51506;-76
2023/01/06 01:21:28;;;;;;;;;;;;;;;16.23;57.26;101400.53;2270815;78;51570;-77
2023/01/06 01:24:29;;;;;;;;;;;;;;;16.24;57.47;101401.73;2269383;78;50451;-76
2023/01/06 01:27:31;;;;;;;;;;;;;;;16.24;57.75;101395.05;2245584;78;49535;-76
2023/01/06 01:30:32;;;;;;;;;;;;;;;16.25;57.84;101399.89;2270947;77;50248;-76
2023/01/06 01:33:34;;;;;;;;;;;;;;;16.24;57.95;101401.73;2271075;78;50674;-77
2023/01/06 01:36:36;;;;;;;;;;;;;;;16.24;58.12;101383.03;2269129;77;51435;-76
2023/01/06 01:39:37;;;;;;;;;;;;;;;16.26;58.41;101383.73;2271053;77;52407;-76
2023/01/06 01:42:39;;;;;;;;;;;;;;;16.27;58.56;101385.91;2237382;78;51546;-77
2023/01/06 01:45:41;;;;;;;;;;;;;;;16.25;58.88;101384.70;2268996;77;51569;-75
2023/01/06 01:48:43;;;;;;;;;;;;;;;16.27;58.89;101389.91;2268914;77;50666;-76
2023/01/06 01:51:45;;;;;;;;;;;;;;;16.29;58.96;101386.60;2245467;77;51004;-75
2023/01/06 01:54:47;;;;;;;;;;;;;;;16.29;59.03;101380.76;2269102;77;50645;-75
2023/01/06 01:57:53;;;;;;;;;;;;;;;16.29;59.19;101384.77;2268851;77;50367;-76
2023/01/06 02:00:55;;;;;;;;;;;;;;;16.31;59.25;101383.26;2269170;78;51591;-76
2023/01/06 02:03:56;;;;;;;;;;;;;;;16.30;59.39;101382.42;2245434;77;52385;-76
2023/01/06 02:06:58;;;;;;;;;;;;;;;16.32;59.42;101374.28;2268939;78;51497;-76
2023/01/06 02:10:01;;;;;;;;;;;;;;;16.36;59.40;101373.47;2269221;77;49800;-77
2023/01/06 02:13:02;;;;;;;;;;;;;;;16.36;59.40;101366.79;2267499;78;50301;-76
2023/01/06 02:16:06;;;;;;;;;;;;;;;16.36;59.42;101365.45;2245551;77;51261;-75
2023/01/06 02:19:24;;;;;;;;;;;;;;;16.37;59.44;101368.48;2270878;77;50359;-76
2023/01/06 02:22:33;;;;;;;;;;;;;;;16.38;59.54;101363.48;2269138;77;50753;-77
2023/01/06 02:25:53;;;;;;;;;;;;;;;16.38;59.54;101359.47;2269312;77;50285;-76
2023/01/06 02:29:03;;;;;;;;;;;;;;;16.38;59.60;101356.80;2245246;77;51270;-76
2023/01/06 02:32:08;;;;;;;;;;;;;;;16.38;59.68;101357.64;2269114;78;50692;-76
2023/01/06 02:35:12;;;;;;;;;;;;;;;16.37;59.80;101353.30;2269136;78;51575;-76
2023/01/06 02:38:18;;;;;;;;;;;;;;;16.39;59.80;101341.11;2269049;78;52552;-76
2023/01/06 02:41:21;;;;;;;;;;;;;;;16.37;60.01;101345.79;2244516;78;50961;-76
2023/01/06 02:44:24;;;;;;;;;;;;;;;16.38;60.07;101346.13;2266013;78;51364;-74
2023/01/06 02:47:27;;;;;;;;;;;;;;;16.39;60.10;101341.11;2264206;78;51435;-76
2023/01/06 02:50:42;;;;;;;;;;;;;;;16.40;60.10;101333.46;2264436;78;51660;-75
2023/01/06 02:53:48;;;;;;;;;;;;;;;16.40;60.14;101330.79;2266106;78;49573;-76
2023/01/06 02:56:51;;;;;;;;;;;;;;;16.40;60.20;101333.46;2264079;78;51473;-76
2023/01/06 02:59:55;;;;;;;;;;;;;;;16.40;60.31;101333.46;2264320;78;50368;-76
2023/01/06 03:02:57;;;;;;;;;;;;;;;16.40;60.24;101328.95;2264341;78;50349;-76
2023/01/06 03:06:00;;;;;;;;;;;;;;;16.40;60.27;101326.28;2266065;78;50974;-75
2023/01/06 03:09:02;;;;;;;;;;;;;;;16.42;60.26;101334.98;2241025;78;51573;-75
2023/01/06 03:12:17;;;;;;;;;;;;;;;16.42;60.34;101323.47;2259938;78;50405;-75
2023/01/06 03:15:19;;;;;;;;;;;;;;;16.42;60.45;101327.48;2267658;78;51592;-78
2023/01/06 03:18:20;;;;;;;;;;;;;;;16.42;60.44;101323.47;2245413;78;51113;-74
2023/01/06 03:21:23;;;;;;;;;;;;;;;16.43;60.46;101327.81;2268988;77;50721;-75
2023/01/06 03:24:24;;;;;;;;;;;;;;;16.44;60.44;101317.45;2269082;78;51476;-75
2023/01/06 03:27:26;;;;;;;;;;;;;;;16.43;60.55;101308.61;2268648;77;51522;-75
2023/01/06 03:30:29;;;;;;;;;;;;;;;16.43;60.61;101309.11;2245674;78;51006;-75
2023/01/06 03:33:32;;;;;;;;;;;;;;;16.42;60.60;101308.28;2268908;77;50674;-75
2023/01/06 03:36:35;;;;;;;;;;;;;;;16.43;60.58;101304.60;2268736;78;50783;-76
2023/01/06 03:39:50;;;;;;;;;;;;;;;16.45;60.59;101305.30;2268951;77;51606;-75
2023/01/06 03:43:11;;;;;;;;;;;;;;;16.46;60.62;101291.44;2242354;78;52812;-75
2023/01/06 03:46:23;;;;;;;;;;;;;;;16.46;60.63;101292.27;2250633;79;51612;-75
2023/01/06 03:49:29;;;;;;;;;;;;;;;16.44;60.71;101286.73;2250897;78;50374;-75
2023/01/06 03:52:31;;;;;;;;;;;;;;;16.45;60.72;101285.27;2250310;78;51467;-74
2023/01/06 03:55:33;;;;;;;;;;;;;;;16.46;60.77;101282.09;2261529;78;51278;-75
2023/01/06 03:58:34;;;;;;;;;;;;;;;16.46;60.77;101282.09;2250679;78;50783;-76
2023/01/06 04:01:36;;;;;;;;;;;;;;;16.45;60.81;101271.08;2250886;79;50643;-75
2023/01/06 04:04:38;;;;;;;;;;;;;;;16.46;60.82;101276.75;2250872;79;51537;-74
2023/01/06 04:07:39;;;;;;;;;;;;;;;16.45;60.90;101267.90;2261364;78;52241;-76
2023/01/06 04:10:41;;;;;;;;;;;;;;;16.46;60.94;101263.39;2248946;78;51500;-75
2023/01/06 04:13:42;;;;;;;;;;;;;;;16.46;60.95;101257.55;2243640;78;51476;-75
2023/01/06 04:16:44;;;;;;;;;;;;;;;16.46;60.97;101260.72;2270628;76;50346;-76
2023/01/06 04:19:45;;;;;;;;;;;;;;;16.47;60.98;101266.42;2245642;78;49569;-76
2023/01/06 04:22:47;;;;;;;;;;;;;;;16.48;61.06;101264.08;2270919;77;50589;-75
2023/01/06 04:25:49;;;;;;;;;;;;;;;16.49;61.01;101253.73;2269140;77;50715;-76
2023/01/06 04:28:50;;;;;;;;;;;;;;;16.49;61.04;101254.59;2268884;77;51554;-76
2023/01/06 04:31:52;;;;;;;;;;;;;;;16.51;61.05;101255.75;2245811;78;52348;-76
2023/01/06 04:34:53;;;;;;;;;;;;;;;16.49;61.12;101248.38;2245654;78;50994;-75
2023/01/06 04:37:55;;;;;;;;;;;;;;;16.50;61.12;101248.75;2270602;77;50475;-76
2023/01/06 04:40:56;;;;;;;;;;;;;;;16.51;61.15;101245.90;2268828;77;50760;-75
2023/01/06 04:43:58;;;;;;;;;;;;;;;16.51;61.20;101240.56;2229307;78;51384;-76
2023/01/06 04:47:00;;;;;;;;;;;;;;;16.51;61.19;101226.37;2231955;79;50579;-76
2023/01/06 04:50:01;;;;;;;;;;;;;;;16.53;61.16;101227.06;2232285;79;50415;-75
2023/01/06 04:53:03;;;;;;;;;;;;;;;16.54;61.17;101228.72;2233272;78;50173;-76
2023/01/06 04:56:05;;;;;;;;;;;;;;;16.52;61.21;101223.55;2233235;79;50142;-76
2023/01/06 04:59:07;;;;;;;;;;;;;;;16.53;61.18;101211.03;2233304;78;51536;-76
2023/01/06 05:02:08;;;;;;;;;;;;;;;16.53;61.26;101210.53;2232167;79;51455;-76
2023/01/06 05:05:10;;;;;;;;;;;;;;;16.53;61.28;101201.17;2232090;78;50383;-75
2023/01/06 05:08:12;;;;;;;;;;;;;;;16.53;61.32;101193.66;2208924;79;53384;-76
2023/01/06 05:11:14;;;;;;;;;;;;;;;16.53;61.27;101191.00;2239175;78;51475;-76
2023/01/06 05:14:16;;;;;;;;;;;;;;;16.54;61.34;101189.52;2263667;78;51595;-76
2023/01/06 05:17:17;;;;;;;;;;;;;;;16.54;61.37;101184.17;2265932;78;50727;-75
2023/01/06 05:20:19;;;;;;;;;;;;;;;16.54;61.34;101171.28;2241159;78;52441;-76
2023/01/06 05:23:20;;;;;;;;;;;;;;;16.56;61.33;101174.65;2264704;78;51620;-76
2023/01/06 05:26:23;;;;;;;;;;;;;;;16.54;61.42;101169.48;2265024;78;51615;-78
2023/01/06 05:29:24;;;;;;;;;;;;;;;16.54;61.56;101173.95;2264816;78;50746;-77
2023/01/06 05:32:26;;;;;;;;;;;;;;;16.51;62.00;101171.61;2241757;78;50877;-78
2023/01/06 05:35:27;;;;;;;;;;;;;;;16.50;62.30;101180.13;2266806;78;50628;-76
2023/01/06 05:38:29;;;;;;;;;;;;;;;16.51;62.18;101175.61;2265046;78;51432;-76
2023/01/06 05:41:31;;;;;;;;;;;;;;;16.54;61.98;101172.16;2267483;78;51700;-76
2023/01/06 05:44:32;;;;;;;;;;;;;;;16.55;61.90;101171.65;2267603;78;50097;-76
2023/01/06 05:47:34;;;;;;;;;;;;;;;16.57;61.84;101158.11;2265085;78;51482;-76
2023/01/06 05:50:35;;;;;;;;;;;;;;;16.57;61.90;101139.41;2265167;78;50250;-77
2023/01/06 05:53:38;;;;;;;;;;;;;;;16.60;61.87;101145.30;2266994;78;51407;-76
2023/01/06 05:56:39;;;;;;;;;;;;;;;16.60;61.87;101144.47;2241475;78;51683;-78
2023/01/06 05:59:41;;;;;;;;;;;;;;;16.65;61.85;101145.66;2241049;78;49655;-77
2023/01/06 06:02:42;;;;;;;;;;;;;;;16.74;61.70;101135.84;2264808;78;50630;-78
2023/01/06 06:05:44;;;;;;;;;;;;;;;16.77;62.24;101136.86;2266906;78;52640;-78
2023/01/06 06:08:46;;;;;;;;;;;;;;;16.82;62.03;101142.59;2242050;78;50111;-78
2023/01/06 06:11:50;;;;;;;;;;;;;;;16.88;61.98;101144.65;2243831;78;52449;-78
2023/01/06 06:14:50;;;;;;;;;;;;;;;16.96;61.96;101137.17;2269447;78;22475;-77
2023/01/06 06:17:52;;;;;;;;;;;;;;;17.06;61.77;101139.69;2269428;78;50374;-77
2023/01/06 06:20:55;;;;;;;;;;;;;;;17.12;61.65;101126.53;2269486;78;50401;-77
2023/01/06 06:23:57;;;;;;;;;;;;;;;17.22;61.57;101134.93;2269695;78;50535;-78
2023/01/06 06:26:59;;;;;;;;;;;;;;;17.29;61.52;101134.59;2269569;78;50427;-78
2023/01/06 06:30:00;;;;;;;;;;;;;;;17.35;61.45;101126.77;2270092;78;50411;-78
2023/01/06 06:33:02;;;;;;;;;;;;;;;17.44;61.33;101119.59;2265582;78;50319;-79
2023/01/06 06:36:03;;;;;;;;;;;;;;;17.53;61.25;101121.30;2267032;78;50054;-78
2023/01/06 06:39:05;;;;;;;;;;;;;;;17.59;61.09;101123.30;2265256;78;50310;-78
2023/01/06 06:42:07;;;;;;;;;;;;;;;17.62;61.34;101123.00;2266634;77;50381;-78
2023/01/06 06:45:08;;;;;;;;;;;;;;;17.63;61.86;101119.30;2270156;77;50672;-79
2023/01/06 06:48:10;;;;;;;;;;;;;;;17.61;62.49;101109.77;2245810;78;51939;-76
2023/01/06 06:51:18;;;;;;;;;;;;;;;17.58;62.16;101094.87;2269394;78;50733;-77
2023/01/06 06:54:19;;;;;;;;;;;;;;;17.57;62.40;101098.57;2271135;78;52295;-77
2023/01/06 06:57:21;;;;;;;;;;;;;;;17.54;62.70;101090.84;2270956;77;50637;-78
2023/01/06 07:00:23;;;;;;;;;;;;;;;17.51;62.91;101088.51;2246282;78;52809;-77
2023/01/06 07:03:24;;;;;;;;;;;;;;;17.49;62.90;101088.34;2271339;77;50306;-77
2023/01/06 07:06:30;;;;;;;;;;;;;;;17.47;62.91;101094.34;2269925;77;50587;-79
2023/01/06 07:09:29;;;;;;;;;;;;;;;17.46;62.87;101084.66;2269932;77;22373;-78
2023/01/06 07:12:30;;;;;;;;;;;;;;;17.43;62.89;101082.32;2228158;78;51806;-78
2023/01/06 07:15:32;;;;;;;;;;;;;;;17.42;62.91;101080.16;2259797;77;50096;-79
2023/01/06 07:18:34;;;;;;;;;;;;;;;17.38;62.99;101075.61;2210244;79;50681;-78
2023/01/06 07:21:37;;;;;;;;;;;;;;;17.40;62.89;101082.15;2210409;79;51420;-79
2023/01/06 07:24:38;;;;;;;;;;;;;;;17.47;62.56;101089.86;2210526;79;49355;-79
2023/01/06 07:27:40;;;;;;;;;;;;;;;17.41;62.62;101083.30;2210290;79;50283;-78
2023/01/06 07:30:42;;;;;;;;;;;;;;;17.46;62.56;101073.45;2233116;78;50386;-79
2023/01/06 07:33:43;;;;;;;;;;;;;;;17.53;62.35;101075.81;2210433;78;50030;-80
2023/01/06 07:36:45;;;;;;;;;;;;;;;17.64;62.01;101080.82;2210015;79;51562;-79
2023/01/06 07:39:46;;;;;;;;;;;;;;;17.71;61.82;101087.70;2233007;78;51520;-80
2023/01/06 07:42:48;;;;;;;;;;;;;;;17.74;61.69;101082.52;2256363;78;50643;-79
2023/01/06 07:45:49;;;;;;;;;;;;;;;17.72;61.73;101075.14;2271276;77;51534;-78
2023/01/06 07:48:51;;;;;;;;;;;;;;;17.70;61.72;101073.13;2246091;78;52509;-79
2023/01/06 07:51:53;;;;;;;;;;;;;;;17.68;61.76;101088.55;2269623;77;50204;-79
2023/01/06 07:54:58;;;;;;;;;;;;;;;17.68;61.69;101083.19;2269750;77;50417;-79
2023/01/06 07:57:57;;;;;;;;;;;;;;;17.63;61.72;101087.70;2271111;77;22367;-80
2023/01/06 08:01:01;;;;;;;;;;;;;;;17.64;61.65;101092.86;2246360;78;51025;-80
2023/01/06 08:04:02;;;;;;;;;;;;;;;17.61;61.65;101087.85;2269799;77;51544;-80
2023/01/06 08:07:04;;;;;;;;;;;;;;;17.64;61.56;101088.85;2272041;77;51433;-80
2023/01/06 08:10:06;;;;;;;;;;;;;;;17.65;61.53;101079.01;2269839;78;50667;-80
2023/01/06 08:13:08;;;;;;;;;;;;;;;17.63;61.56;101076.48;2230197;78;52574;-79
2023/01/06 08:16:10;;;;;;;;;;;;;;;17.67;61.51;101059.58;2269871;78;50142;-79
2023/01/06 08:19:11;;;;;;;;;;;;;;;17.70;61.39;101049.05;2271652;77;51691;-80
2023/01/06 08:22:13;;;;;;;;;;;;;;;17.76;61.24;101070.64;2246819;78;50106;-79
2023/01/06 08:25:14;;;;;;;;;;;;;;;17.76;61.24;101063.11;2247142;78;50928;-80
2023/01/06 08:28:16;;;;;;;;;;;;;;;17.78;61.13;101061.12;2271875;78;50701;-80
2023/01/06 08:31:18;;;;;;;;;;;;;;;17.73;61.22;101059.44;2270476;77;50396;-78
2023/01/06 08:34:20;;;;;;;;;;;;;;;17.74;61.19;101058.42;2269986;77;51440;-79
2023/01/06 08:37:21;;;;;;;;;;;;;;;17.70;61.25;101049.91;2246157;78;50926;-78
2023/01/06 08:40:23;;;;;;;;;;;;;;;17.68;61.26;101040.37;2269898;78;50466;-79
2023/01/06 08:43:24;;;;;;;;;;;;;;;17.66;61.30;101038.36;2267096;78;50394;-80
2023/01/06 08:46:26;;;;;;;;;;;;;;;17.66;61.25;101039.70;2266916;78;51472;-78
2023/01/06 08:49:28;;;;;;;;;;;;;;;17.68;61.18;101056.43;2242404;78;52491;-79
2023/01/06 08:52:29;;;;;;;;;;;;;;;17.62;61.34;101054.76;2265505;78;51505;-79
2023/01/06 08:55:31;;;;;;;;;;;;;;;17.63;61.34;101035.52;2265587;78;51495;-78
2023/01/06 08:58:32;;;;;;;;;;;;;;;17.70;61.16;101019.13;2265181;78;50514;-78
2023/01/06 09:01:34;;;;;;;;;;;;;;;17.75;61.04;101014.59;2242058;78;49387;-79
2023/01/06 09:04:36;;;;;;;;;;;;;;;17.76;60.97;101008.25;2267219;78;51580;-79
2023/01/06 09:07:38;;;;;;;;;;;;;;;17.73;61.05;101002.73;2265424;78;51455;-79
2023/01/06 09:10:39;;;;;;;;;;;;;;;17.72;61.06;100994.34;2263758;78;49988;-78
2023/01/06 09:13:41;;;;;;;;;;;;;;;17.72;61.05;101000.21;2220461;78;51229;-79
2023/01/06 09:16:43;;;;;;;;;;;;;;;17.69;61.12;101003.23;2265269;78;50735;-79
2023/01/06 09:19:44;;;;;;;;;;;;;;;17.73;60.96;101006.75;2265358;78;50625;-78
2023/01/06 09:22:46;;;;;;;;;;;;;;;17.70;61.01;101023.63;2267136;78;51463;-79
2023/01/06 09:25:47;;;;;;;;;;;;;;;17.63;61.13;101032.84;2267209;78;50103;-78
2023/01/06 09:28:49;;;;;;;;;;;;;;;17.59;61.23;101022.95;2265321;78;51201;-79
2023/01/06 09:31:50;;;;;;;;;;;;;;;17.60;61.27;101018.47;2265482;78;50391;-80
2023/01/06 09:34:52;;;;;;;;;;;;;;;17.64;61.22;101007.74;2265688;78;50792;-78
2023/01/06 09:37:54;;;;;;;;;;;;;;;17.70;61.06;100994.19;2266947;78;51743;-78
2023/01/06 09:41:14;;;;;;;;;;;;;;;17.75;60.97;100997.19;2264004;78;50670;-79
2023/01/06 09:44:29;;;;;;;;;;;;;;;17.77;60.86;101001.88;2260816;78;52057;-79
2023/01/06 09:47:32;;;;;;;;;;;;;;;17.77;60.84;100989.84;2251790;78;50843;-79
2023/01/06 09:50:35;;;;;;;;;;;;;;;17.74;60.91;100984.83;2237654;79;50995;-78
2023/01/06 09:53:38;;;;;;;;;;;;;;;17.73;60.95;100976.47;2252003;79;50959;-78
2023/01/06 09:56:40;;;;;;;;;;;;;;;17.67;61.03;100972.61;2251681;79;50439;-79
2023/01/06 09:59:46;;;;;;;;;;;;;;;17.66;61.07;100974.14;2251769;78;51484;-79
2023/01/06 10:02:47;;;;;;;;;;;;;;;17.64;61.04;100967.09;2262492;78;51011;-79
2023/01/06 10:05:57;;;;;;;;;;;;;;;17.60;61.14;100956.41;2251720;79;50984;-78
2023/01/06 10:09:12;;;;;;;;;;;;;;;17.54;61.32;100947.70;2250848;78;51440;-77
2023/01/06 10:12:15;;;;;;;;;;;;;;;17.61;61.23;100949.21;2256916;78;50768;-77
2023/01/06 10:15:18;;;;;;;;;;;;;;;17.69;61.05;100936.33;2242906;78;51274;-77
2023/01/06 10:18:22;;;;;;;;;;;;;;;17.70;60.98;100936.17;2255618;78;51530;-78
2023/01/06 10:21:25;;;;;;;;;;;;;;;17.77;60.78;100927.77;2266738;78;51624;-78
2023/01/06 10:24:45;;;;;;;;;;;;;;;17.73;60.85;100922.44;2266806;78;51480;-78
2023/01/06 10:28:02;;;;;;;;;;;;;;;17.75;60.82;100928.94;2243064;78;50106;-78
2023/01/06 10:31:08;;;;;;;;;;;;;;;17.74;60.82;100921.93;2266633;78;50691;-77
2023/01/06 10:34:12;;;;;;;;;;;;;;;17.71;60.86;100910.23;2266608;78;51517;-77
2023/01/06 10:37:18;;;;;;;;;;;;;;;17.71;60.83;100911.58;2266561;76;51483;-78
2023/01/06 10:40:22;;;;;;;;;;;;;;;17.69;60.86;100906.38;2243164;78;52536;-78
2023/01/06 10:43:23;;;;;;;;;;;;;;;17.67;60.86;100906.22;2258353;77;50814;-77
2023/01/06 10:46:26;;;;;;;;;;;;;;;17.58;61.12;100896.88;2250647;79;50409;-78
2023/01/06 10:49:27;;;;;;;;;;;;;;;17.57;61.22;100885.85;2250978;79;51466;-78
2023/01/06 10:52:29;;;;;;;;;;;;;;;17.64;61.10;100892.17;2251223;79;50326;-77
2023/01/06 10:55:32;;;;;;;;;;;;;;;17.70;60.91;100883.12;2251006;79;50547;-78
2023/01/06 10:58:37;;;;;;;;;;;;;;;17.76;60.75;100884.63;2250734;79;50455;-78
2023/01/06 11:01:43;;;;;;;;;;;;;;;17.77;60.70;100882.77;2250913;79;50702;-78
2023/01/06 11:04:46;;;;;;;;;;;;;;;17.75;60.74;100880.77;2230410;79;51897;-78
2023/01/06 11:07:58;;;;;;;;;;;;;;;17.73;60.79;100877.45;2250848;78;51543;-79
2023/01/06 11:10:59;;;;;;;;;;;;;;;17.73;60.79;100882.80;2250160;78;50763;-79
2023/01/06 11:14:03;;;;;;;;;;;;;;;17.72;60.79;100879.27;2251149;78;51518;-80
2023/01/06 11:17:06;;;;;;;;;;;;;;;17.67;60.93;100875.45;2261371;78;52448;-78
2023/01/06 11:20:09;;;;;;;;;;;;;;;17.68;60.85;100869.94;2250791;79;50775;-78
2023/01/06 11:23:15;;;;;;;;;;;;;;;17.62;61.02;100861.23;2250954;79;50775;-78
2023/01/06 11:26:22;;;;;;;;;;;;;;;17.56;61.22;100869.45;2245441;78;50455;-78
2023/01/06 11:29:25;;;;;;;;;;;;;;;17.59;61.20;100861.07;2236384;78;50887;-79
2023/01/06 11:32:27;;;;;;;;;;;;;;;17.63;61.11;100846.36;2250373;78;52611;-78
2023/01/06 11:35:30;;;;;;;;;;;;;;;17.70;60.94;100842.50;2250916;78;50830;-78
2023/01/06 11:38:31;;;;;;;;;;;;;;;17.75;60.84;100836.61;2250734;78;51638;-78
2023/01/06 11:41:35;;;;;;;;;;;;;;;17.76;60.75;100839.63;2256766;78;50304;-78
2023/01/06 11:44:37;;;;;;;;;;;;;;;17.73;60.81;100846.17;2257419;78;50465;-78
2023/01/06 11:47:38;;;;;;;;;;;;;;;17.71;60.86;100829.95;2250752;79;51570;-78
2023/01/06 11:50:40;;;;;;;;;;;;;;;17.72;60.78;100827.08;2250833;79;52299;-79
2023/01/06 11:53:43;;;;;;;;;;;;;;;17.71;60.82;100832.12;2261600;78;51243;-78
2023/01/06 11:56:47;;;;;;;;;;;;;;;17.70;60.83;100829.59;2251351;78;50330;-77
2023/01/06 11:59:53;;;;;;;;;;;;;;;17.70;60.84;100834.95;2251305;78;52004;-77
2023/01/06 12:03:02;;;;;;;;;;;;;;;17.60;61.04;100836.00;2250883;78;51592;-78
2023/01/06 12:06:22;;;;;;;;;;;;;;;17.60;61.16;100836.52;2250914;78;22182;-77
2023/01/06 12:09:26;;;;;;;;;;;;;;;17.68;61.00;100834.31;2250815;79;50803;-78
2023/01/06 12:12:27;;;;;;;;;;;;;;;17.71;60.95;100816.06;2254382;77;50798;-78
2023/01/06 12:15:29;;;;;;;;;;;;;;;17.80;60.69;100811.53;2267460;78;50293;-78
2023/01/06 12:18:31;;;;;;;;;;;;;;;17.82;60.62;100806.84;2245571;78;49586;-77
2023/01/06 12:21:33;;;;;;;;;;;;;;;17.77;60.75;100807.84;2269316;78;51487;-78
2023/01/06 12:24:35;;;;;;;;;;;;;;;17.79;60.67;100806.69;2269269;78;50729;-79
2023/01/06 12:27:41;;;;;;;;;;;;;;;17.73;60.79;100814.05;2269184;78;51474;-77
2023/01/06 12:30:59;;;;;;;;;;;;;;;17.74;60.75;100806.84;2245565;77;51255;-77
2023/01/06 12:34:06;;;;;;;;;;;;;;;17.71;60.85;100797.84;2269289;78;51448;-78
2023/01/06 12:37:26;;;;;;;;;;;;;;;17.71;60.81;100791.14;2269107;77;51664;-77
2023/01/06 12:40:29;;;;;;;;;;;;;;;17.72;60.75;100791.47;2269095;78;51429;-77
2023/01/06 12:43:31;;;;;;;;;;;;;;;17.62;61.05;100789.84;2228814;79;51069;-78
2023/01/06 12:46:34;;;;;;;;;;;;;;;17.68;60.99;100783.47;2261328;78;50445;-77
2023/01/06 12:49:43;;;;;;;;;;;;;;;17.73;60.91;100783.78;2251009;77;50379;-78
2023/01/06 12:52:53;;;;;;;;;;;;;;;17.79;60.73;100775.91;2251115;79;50557;-78
2023/01/06 12:55:56;;;;;;;;;;;;;;;17.81;60.66;100771.22;2235767;79;51275;-78
2023/01/06 12:58:59;;;;;;;;;;;;;;;17.82;60.66;100784.91;2250827;79;50357;-78
2023/01/06 13:02:18;;;;;;;;;;;;;;;17.77;60.76;100780.56;2243668;78;50358;-77
2023/01/06 13:05:39;;;;;;;;;;;;;;;17.76;60.80;100784.77;2251221;78;50332;-77
2023/01/06 13:08:45;;;;;;;;;;;;;;;17.76;60.80;100776.73;2236575;79;52686;-77
2023/01/06 13:11:57;;;;;;;;;;;;;;;17.74;60.79;100781.42;2243006;78;50828;-78
2023/01/06 13:15:06;;;;;;;;;;;;;;;17.72;60.84;100779.42;2265868;78;51605;-79
2023/01/06 13:18:15;;;;;;;;;;;;;;;17.70;60.90;100780.95;2264349;78;50253;-77
2023/01/06 13:21:18;;;;;;;;;;;;;;;17.62;61.11;100788.51;2266314;78;52019;-78
2023/01/06 13:24:28;;;;;;;;;;;;;;;17.60;61.23;100787.84;2264457;78;50297;-77
2023/01/06 13:27:40;;;;;;;;;;;;;;;17.67;61.09;100787.13;2264295;78;51386;-78
2023/01/06 13:30:43;;;;;;;;;;;;;;;17.77;60.92;100793.11;2246912;78;50314;-77
2023/01/06 13:34:05;;;;;;;;;;;;;;;17.82;60.70;100791.61;2231124;78;49542;-78
2023/01/06 13:37:11;;;;;;;;;;;;;;;17.83;60.64;100791.12;2264184;77;50336;-79
2023/01/06 13:40:14;;;;;;;;;;;;;;;17.81;60.73;100798.49;2259110;78;50298;-79
2023/01/06 13:43:26;;;;;;;;;;;;;;;17.84;60.64;100795.46;2265379;78;51509;-79
2023/01/06 13:46:28;;;;;;;;;;;;;;;17.79;60.75;100801.33;2252678;78;51739;-79
2023/01/06 13:49:29;;;;;;;;;;;;;;;17.75;60.89;100800.48;2246180;78;51491;-79
2023/01/06 13:52:31;;;;;;;;;;;;;;;17.72;60.99;100798.16;2272635;77;50040;-79
2023/01/06 13:55:39;;;;;;;;;;;;;;;17.71;61.05;100797.84;2271631;76;51472;-78
2023/01/06 13:58:37;;;;;;;;;;;;;;;17.61;61.35;100804.72;2266342;78;22767;-78
2023/01/06 14:01:38;;;;;;;;;;;;;;;17.59;61.54;100806.73;2277922;77;50226;-78
2023/01/06 14:04:41;;;;;;;;;;;;;;;17.63;61.50;100810.23;2268217;78;50633;-79
2023/01/06 14:07:45;;;;;;;;;;;;;;;17.71;61.38;100815.23;2268769;78;50684;-79
2023/01/06 14:10:48;;;;;;;;;;;;;;;17.79;61.12;100816.53;2218647;78;51021;-79
2023/01/06 14:13:50;;;;;;;;;;;;;;;17.78;61.13;100821.56;2266217;78;50195;-78
2023/01/06 14:16:53;;;;;;;;;;;;;;;17.79;61.25;100829.91;2250822;78;50311;-77
2023/01/06 14:19:54;;;;;;;;;;;;;;;17.75;61.41;100835.27;2265243;78;52620;-78
2023/01/06 14:23:06;;;;;;;;;;;;;;;17.73;61.50;100833.30;2266546;78;50856;-77
2023/01/06 14:26:07;;;;;;;;;;;;;;;17.70;61.62;100837.63;2266334;78;51528;-78
2023/01/06 14:29:27;;;;;;;;;;;;;;;17.66;61.67;100844.34;2263289;78;50424;-77
2023/01/06 14:32:36;;;;;;;;;;;;;;;17.63;61.78;100841.00;2263379;78;51407;-77
2023/01/06 14:35:42;;;;;;;;;;;;;;;17.61;61.80;100843.02;2232914;77;51790;-80
2023/01/06 14:38:43;;;;;;;;;;;;;;;17.57;61.99;100843.52;2266188;77;22379;-77
2023/01/06 14:41:58;;;;;;;;;;;;;;;17.59;62.03;100849.55;2258867;78;52362;-78
2023/01/06 14:45:00;;;;;;;;;;;;;;;17.72;61.71;100852.50;2259337;78;51550;-78
2023/01/06 14:48:06;;;;;;;;;;;;;;;17.81;61.34;100858.72;2265843;78;49777;-79
2023/01/06 14:51:08;;;;;;;;;;;;;;;17.83;61.27;100851.36;2257395;78;51510;-80
2023/01/06 14:54:23;;;;;;;;;;;;;;;17.83;61.20;100858.88;2269652;77;50747;-79
2023/01/06 14:57:25;;;;;;;;;;;;;;;17.84;61.10;100857.86;2232997;77;51486;-79
2023/01/06 15:00:32;;;;;;;;;;;;;;;17.79;61.19;100858.02;2186604;79;51427;-79
2023/01/06 15:03:33;;;;;;;;;;;;;;;17.75;61.26;100860.69;2249578;79;24303;-79
2023/01/06 15:06:35;;;;;;;;;;;;;;;17.78;61.20;100872.42;2251213;79;51500;-79
2023/01/06 15:09:36;;;;;;;;;;;;;;;17.73;61.28;100877.45;2251336;79;50735;-79
2023/01/06 15:12:39;;;;;;;;;;;;;;;17.64;61.51;100872.61;2258942;78;51532;-78
2023/01/06 15:15:41;;;;;;;;;;;;;;;17.61;61.68;100872.45;2256284;77;50802;-78
2023/01/06 15:18:43;;;;;;;;;;;;;;;17.68;61.49;100875.28;2266392;78;51514;-78
2023/01/06 15:21:45;;;;;;;;;;;;;;;17.75;61.36;100878.09;2261799;77;50139;-78
2023/01/06 15:24:47;;;;;;;;;;;;;;;17.81;61.21;100879.62;2261394;78;49656;-78
2023/01/06 15:27:49;;;;;;;;;;;;;;;17.81;61.14;100870.77;2250639;79;50671;-79
2023/01/06 15:30:51;;;;;;;;;;;;;;;17.79;61.28;100880.29;2258519;78;50470;-77
2023/01/06 15:33:52;;;;;;;;;;;;;;;17.81;61.26;100882.80;2269236;78;50244;-80
2023/01/06 15:36:54;;;;;;;;;;;;;;;17.80;61.23;100887.33;2266973;77;52308;-76
2023/01/06 15:39:55;;;;;;;;;;;;;;;17.73;61.50;100900.20;2292758;77;51456;-75
2023/01/06 15:42:57;;;;;;;;;;;;;;;17.79;61.52;100900.84;2266681;78;50383;-75